sensor_id;sensor_type;location;lat;lon;timestamp;P1;durP1;ratioP1;P2;durP2;ratioP2
59193;SDS011;44967;48.598;15.650;2024-01-30T00:02:12;20.15;;;10.77;;
59193;SDS011;44967;48.598;15.650;2024-01-30T00:04:38;16.15;;;9.10;;
59193;SDS011;44967;48.598;15.650;2024-01-30T00:07:03;14.68;;;8.57;;
59193;SDS011;44967;48.598;15.650;2024-01-30T00:09:29;18.30;;;9.05;;
59193;SDS011;44967;48.598;15.650;2024-01-30T00:11:55;18.00;;;10.20;;
59193;SDS011;44967;48.598;15.650;2024-01-30T00:14:21;14.18;;;9.07;;
59193;SDS011;44967;48.598;15.650;2024-01-30T00:16:48;18.30;;;9.25;;
59193;SDS011;44967;48.598;15.650;2024-01-30T00:19:14;15.57;;;8.45;;
59193;SDS011;44967;48.598;15.650;2024-01-30T00:21:40;17.17;;;10.07;;
59193;SDS011;44967;48.598;15.650;2024-01-30T00:24:06;20.70;;;9.55;;
59193;SDS011;44967;48.598;15.650;2024-01-30T00:26:32;17.63;;;9.68;;
59193;SDS011;44967;48.598;15.650;2024-01-30T00:28:59;17.02;;;9.20;;
59193;SDS011;44967;48.598;15.650;2024-01-30T00:31:25;20.60;;;10.07;;
59193;SDS011;44967;48.598;15.650;2024-01-30T00:33:51;18.80;;;9.43;;
59193;SDS011;44967;48.598;15.650;2024-01-30T00:36:17;18.38;;;9.38;;
59193;SDS011;44967;48.598;15.650;2024-01-30T00:38:42;20.83;;;9.20;;
59193;SDS011;44967;48.598;15.650;2024-01-30T00:41:08;19.00;;;8.98;;
59193;SDS011;44967;48.598;15.650;2024-01-30T00:43:35;14.90;;;8.75;;
59193;SDS011;44967;48.598;15.650;2024-01-30T00:46:01;20.95;;;9.77;;
59193;SDS011;44967;48.598;15.650;2024-01-30T00:48:27;16.85;;;9.23;;
59193;SDS011;44967;48.598;15.650;2024-01-30T00:50:53;19.95;;;8.98;;
59193;SDS011;44967;48.598;15.650;2024-01-30T00:53:19;20.67;;;9.35;;
59193;SDS011;44967;48.598;15.650;2024-01-30T00:55:46;20.23;;;9.27;;
59193;SDS011;44967;48.598;15.650;2024-01-30T00:58:12;21.15;;;9.82;;
59193;SDS011;44967;48.598;15.650;2024-01-30T01:00:38;19.27;;;9.90;;
59193;SDS011;44967;48.598;15.650;2024-01-30T01:03:04;17.73;;;9.50;;
59193;SDS011;44967;48.598;15.650;2024-01-30T01:05:30;18.80;;;10.73;;
59193;SDS011;44967;48.598;15.650;2024-01-30T01:07:55;19.77;;;9.88;;
59193;SDS011;44967;48.598;15.650;2024-01-30T01:10:21;18.38;;;9.93;;
59193;SDS011;44967;48.598;15.650;2024-01-30T01:12:48;18.15;;;9.80;;
59193;SDS011;44967;48.598;15.650;2024-01-30T01:15:13;19.40;;;9.50;;
59193;SDS011;44967;48.598;15.650;2024-01-30T01:17:39;25.52;;;10.55;;
59193;SDS011;44967;48.598;15.650;2024-01-30T01:20:06;16.92;;;9.88;;
59193;SDS011;44967;48.598;15.650;2024-01-30T01:22:32;16.58;;;9.77;;
59193;SDS011;44967;48.598;15.650;2024-01-30T01:24:59;21.42;;;10.27;;
59193;SDS011;44967;48.598;15.650;2024-01-30T01:27:25;20.83;;;9.35;;
59193;SDS011;44967;48.598;15.650;2024-01-30T01:29:51;17.50;;;10.00;;
59193;SDS011;44967;48.598;15.650;2024-01-30T01:32:18;16.27;;;8.70;;
59193;SDS011;44967;48.598;15.650;2024-01-30T01:34:43;20.15;;;9.48;;
59193;SDS011;44967;48.598;15.650;2024-01-30T01:37:10;17.95;;;9.13;;
59193;SDS011;44967;48.598;15.650;2024-01-30T01:39:36;18.92;;;8.77;;
59193;SDS011;44967;48.598;15.650;2024-01-30T01:42:02;17.98;;;9.05;;
59193;SDS011;44967;48.598;15.650;2024-01-30T01:44:28;19.00;;;10.13;;
59193;SDS011;44967;48.598;15.650;2024-01-30T01:46:54;13.70;;;8.88;;
59193;SDS011;44967;48.598;15.650;2024-01-30T01:49:21;21.20;;;10.30;;
59193;SDS011;44967;48.598;15.650;2024-01-30T01:51:48;20.60;;;9.52;;
59193;SDS011;44967;48.598;15.650;2024-01-30T01:54:16;15.85;;;8.85;;
59193;SDS011;44967;48.598;15.650;2024-01-30T01:56:42;24.90;;;11.88;;
59193;SDS011;44967;48.598;15.650;2024-01-30T01:59:08;25.85;;;11.73;;
59193;SDS011;44967;48.598;15.650;2024-01-30T02:01:37;20.60;;;10.30;;
59193;SDS011;44967;48.598;15.650;2024-01-30T02:04:03;19.00;;;9.35;;
59193;SDS011;44967;48.598;15.650;2024-01-30T02:06:29;17.13;;;10.10;;
59193;SDS011;44967;48.598;15.650;2024-01-30T02:08:56;24.23;;;10.90;;
59193;SDS011;44967;48.598;15.650;2024-01-30T02:11:22;21.52;;;10.15;;
59193;SDS011;44967;48.598;15.650;2024-01-30T02:13:49;20.55;;;10.40;;
59193;SDS011;44967;48.598;15.650;2024-01-30T02:16:15;17.48;;;9.50;;
59193;SDS011;44967;48.598;15.650;2024-01-30T02:18:44;18.45;;;9.55;;
59193;SDS011;44967;48.598;15.650;2024-01-30T02:21:15;16.05;;;9.60;;
59193;SDS011;44967;48.598;15.650;2024-01-30T02:23:46;16.70;;;9.93;;
59193;SDS011;44967;48.598;15.650;2024-01-30T02:26:14;18.60;;;9.77;;
59193;SDS011;44967;48.598;15.650;2024-01-30T02:28:40;19.05;;;8.63;;
59193;SDS011;44967;48.598;15.650;2024-01-30T02:31:05;20.70;;;9.45;;
59193;SDS011;44967;48.598;15.650;2024-01-30T02:33:31;19.17;;;9.70;;
59193;SDS011;44967;48.598;15.650;2024-01-30T02:35:57;18.75;;;10.13;;
59193;SDS011;44967;48.598;15.650;2024-01-30T02:38:23;19.33;;;9.68;;
59193;SDS011;44967;48.598;15.650;2024-01-30T02:40:49;15.93;;;8.88;;
59193;SDS011;44967;48.598;15.650;2024-01-30T02:43:15;20.52;;;10.50;;
59193;SDS011;44967;48.598;15.650;2024-01-30T02:45:42;20.92;;;11.27;;
59193;SDS011;44967;48.598;15.650;2024-01-30T02:48:08;22.08;;;11.07;;
59193;SDS011;44967;48.598;15.650;2024-01-30T02:50:33;16.13;;;8.88;;
59193;SDS011;44967;48.598;15.650;2024-01-30T02:52:59;19.10;;;10.38;;
59193;SDS011;44967;48.598;15.650;2024-01-30T02:55:25;23.42;;;10.18;;
59193;SDS011;44967;48.598;15.650;2024-01-30T02:57:51;23.10;;;10.75;;
59193;SDS011;44967;48.598;15.650;2024-01-30T03:00:16;20.38;;;9.50;;
59193;SDS011;44967;48.598;15.650;2024-01-30T03:02:42;24.35;;;10.68;;
59193;SDS011;44967;48.598;15.650;2024-01-30T03:05:08;15.27;;;9.27;;
59193;SDS011;44967;48.598;15.650;2024-01-30T03:07:34;19.98;;;10.30;;
59193;SDS011;44967;48.598;15.650;2024-01-30T03:10:00;20.05;;;9.27;;
59193;SDS011;44967;48.598;15.650;2024-01-30T03:12:25;17.40;;;10.18;;
59193;SDS011;44967;48.598;15.650;2024-01-30T03:14:51;21.50;;;9.55;;
59193;SDS011;44967;48.598;15.650;2024-01-30T03:17:18;21.35;;;9.77;;
59193;SDS011;44967;48.598;15.650;2024-01-30T03:19:43;18.98;;;9.07;;
59193;SDS011;44967;48.598;15.650;2024-01-30T03:22:09;17.55;;;9.18;;
59193;SDS011;44967;48.598;15.650;2024-01-30T03:24:35;17.20;;;9.75;;
59193;SDS011;44967;48.598;15.650;2024-01-30T03:27:01;17.98;;;9.73;;
59193;SDS011;44967;48.598;15.650;2024-01-30T03:29:26;22.02;;;9.93;;
59193;SDS011;44967;48.598;15.650;2024-01-30T03:31:52;19.75;;;9.48;;
59193;SDS011;44967;48.598;15.650;2024-01-30T03:34:18;19.70;;;9.65;;
59193;SDS011;44967;48.598;15.650;2024-01-30T03:36:43;13.48;;;8.82;;
59193;SDS011;44967;48.598;15.650;2024-01-30T03:39:09;20.27;;;8.65;;
59193;SDS011;44967;48.598;15.650;2024-01-30T03:41:35;20.98;;;8.70;;
59193;SDS011;44967;48.598;15.650;2024-01-30T03:44:02;18.65;;;9.32;;
59193;SDS011;44967;48.598;15.650;2024-01-30T03:46:28;15.75;;;10.38;;
59193;SDS011;44967;48.598;15.650;2024-01-30T03:48:53;17.48;;;9.30;;
59193;SDS011;44967;48.598;15.650;2024-01-30T03:51:19;18.25;;;9.73;;
59193;SDS011;44967;48.598;15.650;2024-01-30T03:53:45;18.48;;;10.20;;
59193;SDS011;44967;48.598;15.650;2024-01-30T03:56:11;19.15;;;10.73;;
59193;SDS011;44967;48.598;15.650;2024-01-30T03:58:40;15.25;;;9.68;;
59193;SDS011;44967;48.598;15.650;2024-01-30T04:01:07;18.50;;;9.27;;
59193;SDS011;44967;48.598;15.650;2024-01-30T04:03:38;16.42;;;8.90;;
59193;SDS011;44967;48.598;15.650;2024-01-30T04:06:04;18.02;;;9.15;;
59193;SDS011;44967;48.598;15.650;2024-01-30T04:08:30;18.10;;;9.90;;
59193;SDS011;44967;48.598;15.650;2024-01-30T04:10:56;16.30;;;9.25;;
59193;SDS011;44967;48.598;15.650;2024-01-30T04:13:21;14.05;;;8.32;;
59193;SDS011;44967;48.598;15.650;2024-01-30T04:15:47;16.48;;;9.10;;
59193;SDS011;44967;48.598;15.650;2024-01-30T04:18:12;17.75;;;8.63;;
59193;SDS011;44967;48.598;15.650;2024-01-30T04:20:38;17.42;;;8.65;;
59193;SDS011;44967;48.598;15.650;2024-01-30T04:23:04;20.10;;;9.07;;
59193;SDS011;44967;48.598;15.650;2024-01-30T04:25:30;20.48;;;10.00;;
59193;SDS011;44967;48.598;15.650;2024-01-30T04:27:56;17.02;;;9.02;;
59193;SDS011;44967;48.598;15.650;2024-01-30T04:30:21;17.88;;;11.13;;
59193;SDS011;44967;48.598;15.650;2024-01-30T04:32:47;19.27;;;10.32;;
59193;SDS011;44967;48.598;15.650;2024-01-30T04:35:13;16.35;;;9.98;;
59193;SDS011;44967;48.598;15.650;2024-01-30T04:37:39;18.95;;;9.75;;
59193;SDS011;44967;48.598;15.650;2024-01-30T04:40:05;20.98;;;10.82;;
59193;SDS011;44967;48.598;15.650;2024-01-30T04:42:31;20.38;;;10.32;;
59193;SDS011;44967;48.598;15.650;2024-01-30T04:44:57;17.35;;;9.75;;
59193;SDS011;44967;48.598;15.650;2024-01-30T04:47:23;20.77;;;10.23;;
59193;SDS011;44967;48.598;15.650;2024-01-30T04:49:51;22.65;;;10.98;;
59193;SDS011;44967;48.598;15.650;2024-01-30T04:52:17;20.00;;;10.18;;
59193;SDS011;44967;48.598;15.650;2024-01-30T04:54:43;17.92;;;10.18;;
59193;SDS011;44967;48.598;15.650;2024-01-30T04:57:08;20.58;;;10.65;;
59193;SDS011;44967;48.598;15.650;2024-01-30T04:59:37;18.20;;;10.18;;
59193;SDS011;44967;48.598;15.650;2024-01-30T05:02:03;22.90;;;10.52;;
59193;SDS011;44967;48.598;15.650;2024-01-30T05:04:29;20.65;;;10.63;;
59193;SDS011;44967;48.598;15.650;2024-01-30T05:06:54;18.60;;;9.30;;
59193;SDS011;44967;48.598;15.650;2024-01-30T05:09:20;18.65;;;10.10;;
59193;SDS011;44967;48.598;15.650;2024-01-30T05:11:46;17.88;;;9.88;;
59193;SDS011;44967;48.598;15.650;2024-01-30T05:14:12;15.85;;;9.10;;
59193;SDS011;44967;48.598;15.650;2024-01-30T05:16:40;19.38;;;9.50;;
59193;SDS011;44967;48.598;15.650;2024-01-30T05:19:08;17.55;;;10.70;;
59193;SDS011;44967;48.598;15.650;2024-01-30T05:21:33;19.10;;;10.65;;
59193;SDS011;44967;48.598;15.650;2024-01-30T05:23:59;14.32;;;9.43;;
59193;SDS011;44967;48.598;15.650;2024-01-30T05:26:25;15.05;;;9.77;;
59193;SDS011;44967;48.598;15.650;2024-01-30T05:28:51;17.13;;;10.27;;
59193;SDS011;44967;48.598;15.650;2024-01-30T05:31:17;21.80;;;10.30;;
59193;SDS011;44967;48.598;15.650;2024-01-30T05:33:43;19.20;;;10.55;;
59193;SDS011;44967;48.598;15.650;2024-01-30T05:36:11;20.90;;;10.77;;
59193;SDS011;44967;48.598;15.650;2024-01-30T05:38:37;21.52;;;11.48;;
59193;SDS011;44967;48.598;15.650;2024-01-30T05:41:03;19.08;;;9.82;;
59193;SDS011;44967;48.598;15.650;2024-01-30T05:43:29;18.50;;;11.23;;
59193;SDS011;44967;48.598;15.650;2024-01-30T05:45:55;20.48;;;9.93;;
59193;SDS011;44967;48.598;15.650;2024-01-30T05:48:21;19.30;;;10.65;;
59193;SDS011;44967;48.598;15.650;2024-01-30T05:50:46;23.45;;;11.40;;
59193;SDS011;44967;48.598;15.650;2024-01-30T05:53:12;18.30;;;10.18;;
59193;SDS011;44967;48.598;15.650;2024-01-30T05:55:38;25.25;;;10.90;;
59193;SDS011;44967;48.598;15.650;2024-01-30T05:58:04;17.17;;;9.45;;
59193;SDS011;44967;48.598;15.650;2024-01-30T06:00:29;16.67;;;10.02;;
59193;SDS011;44967;48.598;15.650;2024-01-30T06:02:55;18.60;;;11.30;;
59193;SDS011;44967;48.598;15.650;2024-01-30T06:05:21;18.48;;;10.13;;
59193;SDS011;44967;48.598;15.650;2024-01-30T06:07:47;19.73;;;10.80;;
59193;SDS011;44967;48.598;15.650;2024-01-30T06:10:13;23.45;;;10.82;;
59193;SDS011;44967;48.598;15.650;2024-01-30T06:12:39;19.80;;;10.77;;
59193;SDS011;44967;48.598;15.650;2024-01-30T06:15:05;18.25;;;10.07;;
59193;SDS011;44967;48.598;15.650;2024-01-30T06:17:32;19.27;;;10.63;;
59193;SDS011;44967;48.598;15.650;2024-01-30T06:19:58;20.42;;;11.02;;
59193;SDS011;44967;48.598;15.650;2024-01-30T06:22:24;19.63;;;11.20;;
59193;SDS011;44967;48.598;15.650;2024-01-30T06:24:50;18.45;;;10.32;;
59193;SDS011;44967;48.598;15.650;2024-01-30T06:27:16;19.67;;;11.25;;
59193;SDS011;44967;48.598;15.650;2024-01-30T06:29:43;16.45;;;9.23;;
59193;SDS011;44967;48.598;15.650;2024-01-30T06:32:08;23.35;;;10.30;;
59193;SDS011;44967;48.598;15.650;2024-01-30T06:34:34;20.52;;;10.65;;
59193;SDS011;44967;48.598;15.650;2024-01-30T06:37:00;20.02;;;11.15;;
59193;SDS011;44967;48.598;15.650;2024-01-30T06:39:26;21.77;;;11.70;;
59193;SDS011;44967;48.598;15.650;2024-01-30T06:41:52;24.48;;;13.00;;
59193;SDS011;44967;48.598;15.650;2024-01-30T06:44:18;24.48;;;12.93;;
59193;SDS011;44967;48.598;15.650;2024-01-30T06:46:44;20.38;;;11.52;;
59193;SDS011;44967;48.598;15.650;2024-01-30T06:49:09;22.60;;;11.57;;
59193;SDS011;44967;48.598;15.650;2024-01-30T06:51:35;21.90;;;12.35;;
59193;SDS011;44967;48.598;15.650;2024-01-30T06:54:01;27.13;;;13.07;;
59193;SDS011;44967;48.598;15.650;2024-01-30T06:56:27;20.00;;;11.80;;
59193;SDS011;44967;48.598;15.650;2024-01-30T06:58:53;21.25;;;11.73;;
59193;SDS011;44967;48.598;15.650;2024-01-30T07:01:19;18.42;;;12.10;;
59193;SDS011;44967;48.598;15.650;2024-01-30T07:03:45;21.00;;;11.50;;
59193;SDS011;44967;48.598;15.650;2024-01-30T07:06:10;20.73;;;11.68;;
59193;SDS011;44967;48.598;15.650;2024-01-30T07:08:37;21.42;;;12.32;;
59193;SDS011;44967;48.598;15.650;2024-01-30T07:11:04;22.77;;;12.40;;
59193;SDS011;44967;48.598;15.650;2024-01-30T07:13:31;21.50;;;13.10;;
59193;SDS011;44967;48.598;15.650;2024-01-30T07:15:58;21.85;;;11.70;;
59193;SDS011;44967;48.598;15.650;2024-01-30T07:18:23;20.00;;;12.65;;
59193;SDS011;44967;48.598;15.650;2024-01-30T07:20:49;22.13;;;12.48;;
59193;SDS011;44967;48.598;15.650;2024-01-30T07:23:15;25.83;;;14.73;;
59193;SDS011;44967;48.598;15.650;2024-01-30T07:25:46;30.40;;;15.10;;
59193;SDS011;44967;48.598;15.650;2024-01-30T07:28:14;27.88;;;13.48;;
59193;SDS011;44967;48.598;15.650;2024-01-30T07:30:43;26.95;;;14.82;;
59193;SDS011;44967;48.598;15.650;2024-01-30T07:33:10;36.00;;;18.02;;
59193;SDS011;44967;48.598;15.650;2024-01-30T07:35:36;31.55;;;18.70;;
59193;SDS011;44967;48.598;15.650;2024-01-30T07:38:01;28.05;;;16.48;;
59193;SDS011;44967;48.598;15.650;2024-01-30T07:40:27;25.10;;;14.20;;
59193;SDS011;44967;48.598;15.650;2024-01-30T07:42:53;25.15;;;14.82;;
59193;SDS011;44967;48.598;15.650;2024-01-30T07:45:20;27.52;;;14.30;;
59193;SDS011;44967;48.598;15.650;2024-01-30T07:47:49;24.88;;;13.88;;
59193;SDS011;44967;48.598;15.650;2024-01-30T07:50:14;27.08;;;13.32;;
59193;SDS011;44967;48.598;15.650;2024-01-30T07:52:41;21.33;;;13.32;;
59193;SDS011;44967;48.598;15.650;2024-01-30T07:58:12;24.85;;;13.00;;
59193;SDS011;44967;48.598;15.650;2024-01-30T08:00:38;29.15;;;14.52;;
59193;SDS011;44967;48.598;15.650;2024-01-30T08:03:04;24.92;;;14.38;;
59193;SDS011;44967;48.598;15.650;2024-01-30T08:05:30;31.40;;;15.05;;
59193;SDS011;44967;48.598;15.650;2024-01-30T08:07:56;25.13;;;14.80;;
59193;SDS011;44967;48.598;15.650;2024-01-30T08:10:22;29.33;;;16.23;;
59193;SDS011;44967;48.598;15.650;2024-01-30T08:12:47;28.50;;;15.88;;
59193;SDS011;44967;48.598;15.650;2024-01-30T08:15:13;32.83;;;16.02;;
59193;SDS011;44967;48.598;15.650;2024-01-30T08:17:39;31.85;;;16.13;;
59193;SDS011;44967;48.598;15.650;2024-01-30T08:20:05;33.70;;;14.68;;
59193;SDS011;44967;48.598;15.650;2024-01-30T08:22:33;31.05;;;15.20;;
59193;SDS011;44967;48.598;15.650;2024-01-30T08:24:59;29.15;;;15.10;;
59193;SDS011;44967;48.598;15.650;2024-01-30T08:27:26;26.55;;;14.13;;
59193;SDS011;44967;48.598;15.650;2024-01-30T08:29:51;26.02;;;14.02;;
59193;SDS011;44967;48.598;15.650;2024-01-30T08:32:17;27.20;;;15.57;;
59193;SDS011;44967;48.598;15.650;2024-01-30T08:34:43;28.95;;;15.07;;
59193;SDS011;44967;48.598;15.650;2024-01-30T08:37:09;26.33;;;14.25;;
59193;SDS011;44967;48.598;15.650;2024-01-30T08:39:34;29.73;;;14.38;;
59193;SDS011;44967;48.598;15.650;2024-01-30T08:42:00;30.73;;;14.43;;
59193;SDS011;44967;48.598;15.650;2024-01-30T08:44:25;24.45;;;14.80;;
59193;SDS011;44967;48.598;15.650;2024-01-30T08:46:52;24.67;;;14.23;;
59193;SDS011;44967;48.598;15.650;2024-01-30T08:49:19;25.10;;;14.38;;
59193;SDS011;44967;48.598;15.650;2024-01-30T08:51:45;29.05;;;15.10;;
59193;SDS011;44967;48.598;15.650;2024-01-30T08:54:11;29.67;;;15.27;;
59193;SDS011;44967;48.598;15.650;2024-01-30T08:56:36;31.27;;;15.77;;
59193;SDS011;44967;48.598;15.650;2024-01-30T08:59:02;31.67;;;15.85;;
59193;SDS011;44967;48.598;15.650;2024-01-30T09:01:27;30.60;;;14.75;;
59193;SDS011;44967;48.598;15.650;2024-01-30T09:03:56;32.33;;;15.65;;
59193;SDS011;44967;48.598;15.650;2024-01-30T09:06:21;30.15;;;15.23;;
59193;SDS011;44967;48.598;15.650;2024-01-30T09:08:47;28.02;;;15.95;;
59193;SDS011;44967;48.598;15.650;2024-01-30T09:11:13;29.17;;;15.27;;
59193;SDS011;44967;48.598;15.650;2024-01-30T09:13:39;26.98;;;14.32;;
59193;SDS011;44967;48.598;15.650;2024-01-30T09:16:06;27.23;;;14.25;;
59193;SDS011;44967;48.598;15.650;2024-01-30T09:18:32;33.30;;;16.08;;
59193;SDS011;44967;48.598;15.650;2024-01-30T09:20:58;28.02;;;14.73;;
59193;SDS011;44967;48.598;15.650;2024-01-30T09:23:24;26.92;;;15.95;;
59193;SDS011;44967;48.598;15.650;2024-01-30T09:25:52;29.20;;;16.65;;
59193;SDS011;44967;48.598;15.650;2024-01-30T09:28:18;28.25;;;15.27;;
59193;SDS011;44967;48.598;15.650;2024-01-30T09:30:43;26.35;;;15.57;;
59193;SDS011;44967;48.598;15.650;2024-01-30T09:33:09;28.10;;;15.30;;
59193;SDS011;44967;48.598;15.650;2024-01-30T09:35:36;28.88;;;16.20;;
59193;SDS011;44967;48.598;15.650;2024-01-30T09:38:02;29.25;;;15.07;;
59193;SDS011;44967;48.598;15.650;2024-01-30T09:40:28;28.75;;;15.45;;
59193;SDS011;44967;48.598;15.650;2024-01-30T09:42:54;29.40;;;15.32;;
59193;SDS011;44967;48.598;15.650;2024-01-30T09:45:23;30.42;;;16.58;;
59193;SDS011;44967;48.598;15.650;2024-01-30T09:47:50;28.30;;;15.65;;
59193;SDS011;44967;48.598;15.650;2024-01-30T09:50:16;29.42;;;16.45;;
59193;SDS011;44967;48.598;15.650;2024-01-30T09:52:43;30.20;;;14.95;;
59193;SDS011;44967;48.598;15.650;2024-01-30T09:55:09;25.20;;;15.85;;
59193;SDS011;44967;48.598;15.650;2024-01-30T09:57:35;27.40;;;14.32;;
59193;SDS011;44967;48.598;15.650;2024-01-30T10:00:02;30.02;;;16.40;;
59193;SDS011;44967;48.598;15.650;2024-01-30T10:02:33;24.92;;;15.63;;
59193;SDS011;44967;48.598;15.650;2024-01-30T10:04:59;30.17;;;15.82;;
59193;SDS011;44967;48.598;15.650;2024-01-30T10:07:28;30.90;;;16.58;;
59193;SDS011;44967;48.598;15.650;2024-01-30T10:09:58;27.40;;;15.98;;
59193;SDS011;44967;48.598;15.650;2024-01-30T10:12:27;29.48;;;16.75;;
59193;SDS011;44967;48.598;15.650;2024-01-30T10:14:56;36.35;;;16.77;;
59193;SDS011;44967;48.598;15.650;2024-01-30T10:17:24;27.20;;;15.13;;
59193;SDS011;44967;48.598;15.650;2024-01-30T10:19:50;27.17;;;14.90;;
59193;SDS011;44967;48.598;15.650;2024-01-30T10:22:16;32.00;;;16.52;;
59193;SDS011;44967;48.598;15.650;2024-01-30T10:24:42;28.00;;;15.20;;
59193;SDS011;44967;48.598;15.650;2024-01-30T10:27:10;25.35;;;14.38;;
59193;SDS011;44967;48.598;15.650;2024-01-30T10:29:36;30.95;;;15.60;;
59193;SDS011;44967;48.598;15.650;2024-01-30T10:32:03;28.67;;;15.73;;
59193;SDS011;44967;48.598;15.650;2024-01-30T10:34:30;26.20;;;14.93;;
59193;SDS011;44967;48.598;15.650;2024-01-30T10:37:06;30.20;;;16.17;;
59193;SDS011;44967;48.598;15.650;2024-01-30T10:39:38;27.38;;;15.68;;
59193;SDS011;44967;48.598;15.650;2024-01-30T10:42:11;32.35;;;16.75;;
59193;SDS011;44967;48.598;15.650;2024-01-30T10:47:31;32.63;;;15.50;;
59193;SDS011;44967;48.598;15.650;2024-01-30T10:49:59;28.73;;;15.77;;
59193;SDS011;44967;48.598;15.650;2024-01-30T10:52:30;31.02;;;16.85;;
59193;SDS011;44967;48.598;15.650;2024-01-30T10:54:58;30.90;;;16.80;;
59193;SDS011;44967;48.598;15.650;2024-01-30T10:57:25;29.98;;;16.30;;
59193;SDS011;44967;48.598;15.650;2024-01-30T10:59:56;30.10;;;16.23;;
59193;SDS011;44967;48.598;15.650;2024-01-30T11:02:23;28.88;;;16.40;;
59193;SDS011;44967;48.598;15.650;2024-01-30T11:04:49;32.50;;;16.65;;
59193;SDS011;44967;48.598;15.650;2024-01-30T11:09:52;28.55;;;15.25;;
59193;SDS011;44967;48.598;15.650;2024-01-30T11:12:32;30.27;;;15.45;;
59193;SDS011;44967;48.598;15.650;2024-01-30T11:15:09;31.08;;;16.60;;
59193;SDS011;44967;48.598;15.650;2024-01-30T11:17:47;26.67;;;15.60;;
59193;SDS011;44967;48.598;15.650;2024-01-30T11:20:36;31.42;;;17.17;;
59193;SDS011;44967;48.598;15.650;2024-01-30T11:23:10;30.77;;;14.45;;
59193;SDS011;44967;48.598;15.650;2024-01-30T11:25:37;30.30;;;16.73;;
59193;SDS011;44967;48.598;15.650;2024-01-30T11:28:03;27.92;;;15.85;;
59193;SDS011;44967;48.598;15.650;2024-01-30T11:30:32;28.42;;;15.98;;
59193;SDS011;44967;48.598;15.650;2024-01-30T11:33:05;30.90;;;16.48;;
59193;SDS011;44967;48.598;15.650;2024-01-30T11:38:04;31.38;;;17.30;;
59193;SDS011;44967;48.598;15.650;2024-01-30T11:40:32;28.40;;;15.38;;
59193;SDS011;44967;48.598;15.650;2024-01-30T11:42:59;28.95;;;16.83;;
59193;SDS011;44967;48.598;15.650;2024-01-30T11:45:26;27.40;;;15.35;;
59193;SDS011;44967;48.598;15.650;2024-01-30T11:47:52;28.33;;;15.43;;
59193;SDS011;44967;48.598;15.650;2024-01-30T11:50:18;30.33;;;16.25;;
59193;SDS011;44967;48.598;15.650;2024-01-30T11:52:45;28.45;;;15.50;;
59193;SDS011;44967;48.598;15.650;2024-01-30T11:55:11;28.20;;;15.20;;
59193;SDS011;44967;48.598;15.650;2024-01-30T11:57:38;26.80;;;15.57;;
59193;SDS011;44967;48.598;15.650;2024-01-30T12:00:04;26.73;;;15.88;;
59193;SDS011;44967;48.598;15.650;2024-01-30T12:02:38;28.20;;;15.48;;
59193;SDS011;44967;48.598;15.650;2024-01-30T12:05:05;31.15;;;16.52;;
59193;SDS011;44967;48.598;15.650;2024-01-30T12:07:32;27.60;;;16.15;;
59193;SDS011;44967;48.598;15.650;2024-01-30T12:09:58;28.65;;;14.85;;
59193;SDS011;44967;48.598;15.650;2024-01-30T12:12:25;25.08;;;15.23;;
59193;SDS011;44967;48.598;15.650;2024-01-30T12:14:51;27.65;;;15.27;;
59193;SDS011;44967;48.598;15.650;2024-01-30T12:17:50;28.15;;;14.82;;
59193;SDS011;44967;48.598;15.650;2024-01-30T12:20:11;29.40;;;15.40;;
59193;SDS011;44967;48.598;15.650;2024-01-30T12:22:42;24.23;;;14.15;;
59193;SDS011;44967;48.598;15.650;2024-01-30T12:25:12;24.48;;;15.10;;
59193;SDS011;44967;48.598;15.650;2024-01-30T12:27:39;26.67;;;15.07;;
59193;SDS011;44967;48.598;15.650;2024-01-30T12:30:11;34.63;;;16.50;;
59193;SDS011;44967;48.598;15.650;2024-01-30T12:32:42;30.10;;;15.57;;
59193;SDS011;44967;48.598;15.650;2024-01-30T12:35:10;28.23;;;15.25;;
59193;SDS011;44967;48.598;15.650;2024-01-30T12:37:37;29.98;;;16.08;;
59193;SDS011;44967;48.598;15.650;2024-01-30T12:40:04;25.27;;;15.13;;
59193;SDS011;44967;48.598;15.650;2024-01-30T12:42:31;29.40;;;16.52;;
59193;SDS011;44967;48.598;15.650;2024-01-30T12:44:57;27.45;;;15.30;;
59193;SDS011;44967;48.598;15.650;2024-01-30T12:47:24;26.95;;;15.63;;
59193;SDS011;44967;48.598;15.650;2024-01-30T12:49:50;25.05;;;15.00;;
59193;SDS011;44967;48.598;15.650;2024-01-30T12:52:20;35.65;;;15.90;;
59193;SDS011;44967;48.598;15.650;2024-01-30T12:54:49;26.98;;;15.70;;
59193;SDS011;44967;48.598;15.650;2024-01-30T12:57:15;30.15;;;16.17;;
59193;SDS011;44967;48.598;15.650;2024-01-30T12:59:42;27.77;;;15.15;;
59193;SDS011;44967;48.598;15.650;2024-01-30T13:02:09;27.67;;;16.10;;
59193;SDS011;44967;48.598;15.650;2024-01-30T13:04:36;27.88;;;15.63;;
59193;SDS011;44967;48.598;15.650;2024-01-30T13:07:02;24.02;;;15.20;;
59193;SDS011;44967;48.598;15.650;2024-01-30T13:09:29;33.05;;;16.58;;
59193;SDS011;44967;48.598;15.650;2024-01-30T13:11:57;30.60;;;16.20;;
59193;SDS011;44967;48.598;15.650;2024-01-30T13:14:23;34.83;;;17.40;;
59193;SDS011;44967;48.598;15.650;2024-01-30T13:16:49;25.42;;;15.07;;
59193;SDS011;44967;48.598;15.650;2024-01-30T13:19:16;24.73;;;14.13;;
59193;SDS011;44967;48.598;15.650;2024-01-30T13:21:42;32.28;;;16.63;;
59193;SDS011;44967;48.598;15.650;2024-01-30T13:24:08;26.35;;;15.27;;
59193;SDS011;44967;48.598;15.650;2024-01-30T13:26:34;28.25;;;16.77;;
59193;SDS011;44967;48.598;15.650;2024-01-30T13:29:00;26.90;;;15.20;;
59193;SDS011;44967;48.598;15.650;2024-01-30T13:31:26;29.60;;;16.20;;
59193;SDS011;44967;48.598;15.650;2024-01-30T13:33:52;29.08;;;15.63;;
59193;SDS011;44967;48.598;15.650;2024-01-30T13:36:19;25.92;;;14.65;;
59193;SDS011;44967;48.598;15.650;2024-01-30T13:38:45;25.90;;;15.68;;
59193;SDS011;44967;48.598;15.650;2024-01-30T13:41:11;30.85;;;15.13;;
59193;SDS011;44967;48.598;15.650;2024-01-30T13:43:37;25.40;;;14.45;;
59193;SDS011;44967;48.598;15.650;2024-01-30T13:46:02;28.85;;;15.90;;
59193;SDS011;44967;48.598;15.650;2024-01-30T13:48:28;30.38;;;16.05;;
59193;SDS011;44967;48.598;15.650;2024-01-30T13:50:55;28.17;;;15.05;;
59193;SDS011;44967;48.598;15.650;2024-01-30T13:53:21;29.95;;;15.23;;
59193;SDS011;44967;48.598;15.650;2024-01-30T13:55:47;28.17;;;15.77;;
59193;SDS011;44967;48.598;15.650;2024-01-30T13:58:13;24.27;;;14.73;;
59193;SDS011;44967;48.598;15.650;2024-01-30T14:00:39;30.65;;;15.85;;
59193;SDS011;44967;48.598;15.650;2024-01-30T14:03:05;24.10;;;14.82;;
59193;SDS011;44967;48.598;15.650;2024-01-30T14:05:31;29.17;;;16.52;;
59193;SDS011;44967;48.598;15.650;2024-01-30T14:07:57;29.85;;;16.80;;
59193;SDS011;44967;48.598;15.650;2024-01-30T14:10:25;27.83;;;14.90;;
59193;SDS011;44967;48.598;15.650;2024-01-30T14:12:51;28.55;;;16.23;;
59193;SDS011;44967;48.598;15.650;2024-01-30T14:15:17;29.05;;;15.85;;
59193;SDS011;44967;48.598;15.650;2024-01-30T14:17:43;31.23;;;15.48;;
59193;SDS011;44967;48.598;15.650;2024-01-30T14:20:10;23.10;;;14.38;;